Terminal Aerodrome Forecast
Issued by NWS

Home | Current Version | Previous Version | Text Only | Print | Product List | Glossary On
Versions: 1 2 3 4 5 6 7 8 9 10 11 12 13 14 15
747
FTUS42 KFFC 260549
TAFRYY
TAF
KRYY 260549Z 2606/2706 17005KT P6SM FEW100 SCT250
     FM261000 12003KT P6SM FEW015
     FM261400 14006KT P6SM FEW035
     FM261800 16007KT P6SM VCSH SCT045 PROB30 2622/2702 6SM -TSRA
      OVC035CB
     FM270300 21002KT 6SM BR VCSH BKN050 BKN100
      AMD NOT SKED TIL 261200=

USA.gov is the U.S. government's official web portal to all federal, state and local government web resources and services.